createdAt,value
2018-03-30T00:00:35.312Z,100232.91
2018-03-30T00:03:01.094Z,100235.46
2018-03-30T00:05:26.899Z,100231.76
2018-03-30T00:07:52.688Z,100225.89
2018-03-30T00:10:18.482Z,100229.44
2018-03-30T00:12:44.267Z,100234.30
2018-03-30T00:15:10.060Z,100237.48
2018-03-30T00:17:35.863Z,100229.48
2018-03-30T00:20:01.687Z,100232.92
2018-03-30T00:22:27.483Z,100239.48
2018-03-30T00:24:53.251Z,100235.86
2018-03-30T00:27:19.074Z,100230.42
2018-03-30T00:29:51.928Z,100228.42
2018-03-30T00:32:17.764Z,100226.24
2018-03-30T00:34:43.582Z,100227.84
2018-03-30T00:37:09.364Z,100236.97
2018-03-30T00:39:35.154Z,100238.66
2018-03-30T00:42:00.967Z,100236.31
2018-03-30T00:44:26.764Z,100235.89
2018-03-30T00:46:52.555Z,100228.92
2018-03-30T00:49:18.367Z,100218.62
2018-03-30T00:51:44.958Z,100213.32
2018-03-30T00:54:10.743Z,100210.42
2018-03-30T00:56:36.552Z,100217.16
2018-03-30T00:59:02.379Z,100221.42
2018-03-30T01:01:28.184Z,100222.82
2018-03-30T01:03:53.992Z,100225.31
2018-03-30T01:06:19.792Z,100235.79
2018-03-30T01:08:45.578Z,100239.66
2018-03-30T01:11:11.397Z,100246.92
2018-03-30T01:13:37.195Z,100244.98
2018-03-30T01:16:03.127Z,100248.19
2018-03-30T01:18:29.961Z,100252.42
2018-03-30T01:20:55.766Z,100237.21
2018-03-30T01:23:21.562Z,100246.56
2018-03-30T01:25:47.385Z,100241.58
2018-03-30T01:28:13.183Z,100243.95
2018-03-30T01:30:38.976Z,100243.30
2018-03-30T01:33:04.773Z,100238.36
2018-03-30T01:35:30.579Z,100236.34
2018-03-30T01:37:56.380Z,100243.46
2018-03-30T01:40:22.158Z,100241.13
2018-03-30T01:42:48.142Z,100248.89
2018-03-30T01:45:13.936Z,100251.95
2018-03-30T01:47:39.712Z,100252.47
2018-03-30T01:50:05.499Z,100254.70
2018-03-30T01:52:31.308Z,100247.95
2018-03-30T01:54:57.129Z,100252.11
2018-03-30T01:57:22.919Z,100257.23
2018-03-30T01:59:48.735Z,100256.08
2018-03-30T02:02:21.595Z,100256.35
2018-03-30T02:04:47.389Z,100255.89
2018-03-30T02:07:13.193Z,100257.24
2018-03-30T02:09:39.023Z,100257.31
2018-03-30T02:12:04.808Z,100253.02
2018-03-30T02:14:30.605Z,100251.72
2018-03-30T02:16:56.403Z,100251.34
2018-03-30T02:19:22.214Z,100250.89
2018-03-30T02:21:48.069Z,100247.35
2018-03-30T02:24:13.895Z,100249.41
2018-03-30T02:26:39.686Z,100241.44
2018-03-30T02:29:05.492Z,100235.97
2018-03-30T02:31:31.288Z,100237.93
2018-03-30T02:33:57.113Z,100250.87
2018-03-30T02:36:22.899Z,100238.66
2018-03-30T02:38:48.692Z,100233.84
2018-03-30T02:41:14.755Z,100235.36
2018-03-30T02:43:40.540Z,100248.27
2018-03-30T02:46:06.340Z,100245.88
2018-03-30T02:48:32.159Z,100245.62
2018-03-30T02:50:57.955Z,100249.39
2018-03-30T02:53:23.744Z,100245.52
2018-03-30T02:55:49.534Z,100234.61
2018-03-30T02:58:15.340Z,100241.05
2018-03-30T03:00:41.147Z,100227.79
2018-03-30T03:03:06.953Z,100232.55
2018-03-30T03:05:33.031Z,100222.45
2018-03-30T03:07:58.824Z,100222.66
2018-03-30T03:10:24.615Z,100224.49
2018-03-30T03:12:50.448Z,100223.92
2018-03-30T03:15:16.230Z,100236.22
2018-03-30T03:17:42.037Z,100231.22
2018-03-30T03:20:07.914Z,100233.55
2018-03-30T03:22:33.722Z,100237.59
2018-03-30T03:24:59.535Z,100236.36
2018-03-30T03:27:25.343Z,100229.84
2018-03-30T03:29:51.130Z,100240.63
2018-03-30T03:32:16.919Z,100235.02
2018-03-30T03:34:42.712Z,100234.52
2018-03-30T03:37:08.496Z,100221.66
2018-03-30T03:39:34.299Z,100218.80
2018-03-30T03:42:00.112Z,100222.70
2018-03-30T03:44:25.905Z,100232.36
2018-03-30T03:46:51.703Z,100241.06
2018-03-30T03:49:17.497Z,100239.58
2018-03-30T03:51:43.312Z,100235.55
2018-03-30T03:54:09.112Z,100226.52
2018-03-30T03:56:34.902Z,100228.38
2018-03-30T03:59:00.719Z,100222.90
2018-03-30T04:01:26.551Z,100229.89
2018-03-30T04:03:52.335Z,100227.39
2018-03-30T04:06:18.476Z,100232.05
2018-03-30T04:08:44.296Z,100236.38
2018-03-30T04:11:10.087Z,100226.98
2018-03-30T04:13:36.151Z,100226.97
2018-03-30T04:16:01.940Z,100220.00
2018-03-30T04:18:27.726Z,100211.62
2018-03-30T04:20:53.559Z,100219.55
2018-03-30T04:23:19.356Z,100223.58
2018-03-30T04:25:45.144Z,100229.53
2018-03-30T04:28:10.926Z,100231.27
2018-03-30T04:30:36.707Z,100211.46
2018-03-30T04:33:02.553Z,100218.31
2018-03-30T04:35:28.363Z,100220.98
2018-03-30T04:37:54.123Z,100221.88
2018-03-30T04:40:19.950Z,100220.66
2018-03-30T04:42:45.737Z,100221.36
2018-03-30T04:45:11.524Z,100225.95
2018-03-30T04:47:37.332Z,100225.22
2018-03-30T04:50:03.180Z,100214.33
2018-03-30T04:52:28.955Z,100202.59
2018-03-30T04:54:54.744Z,100201.25
2018-03-30T04:57:20.550Z,100196.16
2018-03-30T04:59:46.338Z,100189.11
2018-03-30T05:02:12.119Z,100198.23
2018-03-30T05:04:37.919Z,100202.87
2018-03-30T05:07:03.747Z,100208.64
2018-03-30T05:09:29.534Z,100212.67
2018-03-30T05:11:55.328Z,100211.80
2018-03-30T05:14:21.112Z,100212.41
2018-03-30T05:16:46.920Z,100216.53
2018-03-30T05:19:12.712Z,100224.36
2018-03-30T05:21:38.487Z,100222.89
2018-03-30T05:24:04.282Z,100227.06
2018-03-30T05:26:30.394Z,100226.20
2018-03-30T05:28:56.189Z,100233.22
2018-03-30T05:31:21.967Z,100228.85
2018-03-30T05:33:47.768Z,100236.36
2018-03-30T05:36:13.565Z,100233.04
2018-03-30T05:38:39.348Z,100235.94
2018-03-30T05:41:05.399Z,100234.45
2018-03-30T05:43:31.187Z,100247.59
2018-03-30T05:45:56.978Z,100244.39
2018-03-30T05:48:22.800Z,100244.81
2018-03-30T05:50:48.611Z,100245.88
2018-03-30T05:53:14.439Z,100242.64
2018-03-30T05:55:40.213Z,100247.95
2018-03-30T05:58:05.996Z,100245.02
2018-03-30T06:00:31.800Z,100245.45
2018-03-30T06:02:57.592Z,100247.87
2018-03-30T06:05:23.393Z,100245.63
2018-03-30T06:07:49.319Z,100243.89
2018-03-30T06:10:15.116Z,100241.14
2018-03-30T06:12:40.931Z,100244.83
2018-03-30T06:15:06.723Z,100242.36
2018-03-30T06:17:32.506Z,100238.72
2018-03-30T06:19:58.316Z,100242.58
2018-03-30T06:22:24.102Z,100240.70
2018-03-30T06:24:50.179Z,100244.41
2018-03-30T06:27:15.979Z,100239.17
2018-03-30T06:29:41.754Z,100241.13
2018-03-30T06:32:07.588Z,100248.84
2018-03-30T06:34:33.370Z,100241.13
2018-03-30T06:36:59.189Z,100239.02
2018-03-30T06:39:25.016Z,100235.88
2018-03-30T06:41:50.842Z,100227.44
2018-03-30T06:44:16.630Z,100233.23
2018-03-30T06:46:42.475Z,100236.94
2018-03-30T06:49:08.395Z,100237.97
2018-03-30T06:51:34.225Z,100228.66
2018-03-30T06:54:00.048Z,100234.94
2018-03-30T06:56:26.218Z,100234.08
2018-03-30T06:58:52.041Z,100239.00
2018-03-30T07:01:17.911Z,100241.67
2018-03-30T07:03:43.728Z,100248.42
2018-03-30T07:06:09.524Z,100249.84
2018-03-30T07:08:35.326Z,100240.22
2018-03-30T07:11:01.169Z,100242.45
2018-03-30T07:13:26.951Z,100242.97
2018-03-30T07:15:52.757Z,100246.53
2018-03-30T07:18:18.571Z,100251.94
2018-03-30T07:20:44.357Z,100252.23
2018-03-30T07:23:10.146Z,100256.25
2018-03-30T07:25:35.979Z,100266.56
2018-03-30T07:28:01.769Z,100264.70
2018-03-30T07:30:27.572Z,100266.96
2018-03-30T07:32:53.417Z,100267.09
2018-03-30T07:35:19.229Z,100269.12
2018-03-30T07:37:45.083Z,100269.55
2018-03-30T07:40:13.168Z,100265.14
2018-03-30T07:42:38.991Z,100270.11
2018-03-30T07:45:04.840Z,100267.83
2018-03-30T07:47:30.654Z,100269.14
2018-03-30T07:49:56.520Z,100265.94
2018-03-30T07:52:22.328Z,100265.09
2018-03-30T07:54:48.176Z,100268.14
2018-03-30T07:57:14.022Z,100263.30
2018-03-30T07:59:39.961Z,100257.58
2018-03-30T08:02:06.241Z,100253.05
2018-03-30T08:04:32.089Z,100251.16
2018-03-30T08:06:59.136Z,100258.22
2018-03-30T08:09:25.585Z,100257.98
2018-03-30T08:11:51.403Z,100255.22
2018-03-30T08:14:17.365Z,100258.05
2018-03-30T08:16:50.556Z,100253.16
2018-03-30T08:19:16.650Z,100251.95
2018-03-30T08:21:42.760Z,100252.91
2018-03-30T08:24:08.634Z,100253.19
2018-03-30T08:26:34.628Z,100262.84
2018-03-30T08:29:00.514Z,100255.39
2018-03-30T08:31:26.736Z,100253.75
2018-03-30T08:33:52.522Z,100241.16
2018-03-30T08:36:18.464Z,100247.22
2018-03-30T08:38:44.683Z,100242.06
2018-03-30T08:41:10.469Z,100243.45
2018-03-30T08:43:36.560Z,100238.45
2018-03-30T08:46:02.417Z,100239.53
2018-03-30T08:48:28.210Z,100242.31
2018-03-30T08:50:54.011Z,100240.13
2018-03-30T08:53:19.832Z,100246.95
2018-03-30T08:55:45.629Z,100247.75
2018-03-30T08:58:11.423Z,100249.83
2018-03-30T09:00:37.232Z,100253.56
2018-03-30T09:03:03.035Z,100249.36
2018-03-30T09:05:28.836Z,100248.20
2018-03-30T09:07:54.643Z,100255.24
2018-03-30T09:10:20.450Z,100250.15
2018-03-30T09:12:46.223Z,100252.53
2018-03-30T09:15:12.030Z,100248.67
2018-03-30T09:17:37.977Z,100239.66
2018-03-30T09:20:03.804Z,100239.73
2018-03-30T09:22:29.724Z,100236.97
2018-03-30T09:24:55.510Z,100234.67
2018-03-30T09:27:21.316Z,100230.13
2018-03-30T09:29:53.277Z,100237.58
2018-03-30T09:32:19.071Z,100240.94
2018-03-30T09:34:44.868Z,100236.08
2018-03-30T09:37:10.703Z,100224.36
2018-03-30T09:39:36.499Z,100228.72
2018-03-30T09:42:02.326Z,100221.50
2018-03-30T09:44:28.134Z,100223.69
2018-03-30T09:46:53.933Z,100222.43
2018-03-30T09:49:19.748Z,100222.01
2018-03-30T09:51:45.560Z,100220.97
2018-03-30T09:54:11.689Z,100217.47
2018-03-30T09:56:37.522Z,100221.06
2018-03-30T09:59:03.405Z,100214.58
2018-03-30T10:01:29.227Z,100217.09
2018-03-30T10:03:55.056Z,100220.41
2018-03-30T10:06:20.897Z,100221.17
2018-03-30T10:08:46.695Z,100220.66
2018-03-30T10:11:12.533Z,100221.84
2018-03-30T10:13:38.355Z,100218.46
2018-03-30T10:16:04.174Z,100213.28
2018-03-30T10:18:31.532Z,100208.69
2018-03-30T10:20:57.394Z,100202.94
2018-03-30T10:23:23.190Z,100192.80
2018-03-30T10:25:49.744Z,100201.66
2018-03-30T10:28:15.570Z,100199.89
2018-03-30T10:30:41.390Z,100203.42
2018-03-30T10:33:08.187Z,100196.76
2018-03-30T10:35:34.250Z,100190.63
2018-03-30T10:38:00.174Z,100191.50
2018-03-30T10:40:26.787Z,100194.81
2018-03-30T10:42:52.635Z,100191.85
2018-03-30T10:45:18.436Z,100190.91
2018-03-30T10:47:44.271Z,100192.53
2018-03-30T10:50:10.103Z,100179.69
2018-03-30T10:52:36.083Z,100181.67
2018-03-30T10:55:01.909Z,100184.36
2018-03-30T10:57:27.866Z,100180.48
2018-03-30T10:59:53.658Z,100180.19
2018-03-30T11:02:20.115Z,100187.20
2018-03-30T11:04:45.948Z,100175.84
2018-03-30T11:07:11.780Z,100180.88
2018-03-30T11:09:37.558Z,100170.98
2018-03-30T11:12:03.621Z,100171.45
2018-03-30T11:14:29.426Z,100172.48
2018-03-30T11:16:55.207Z,100170.33
2018-03-30T11:19:21.004Z,100164.62
2018-03-30T11:21:46.817Z,100165.04
2018-03-30T11:24:12.636Z,100166.90
2018-03-30T11:26:38.415Z,100165.11
2018-03-30T11:29:04.215Z,100168.71
2018-03-30T11:31:30.009Z,100169.02
2018-03-30T11:33:55.799Z,100171.73
2018-03-30T11:36:21.620Z,100165.13
2018-03-30T11:38:47.409Z,100151.41
2018-03-30T11:41:13.195Z,100144.14
2018-03-30T11:43:39.267Z,100137.53
2018-03-30T11:46:05.059Z,100131.27
2018-03-30T11:48:30.845Z,100118.62
2018-03-30T11:50:56.707Z,100122.19
2018-03-30T11:53:22.502Z,100115.70
2018-03-30T11:55:48.275Z,100114.09
2018-03-30T11:58:14.059Z,100103.45
2018-03-30T12:00:40.193Z,100103.91
2018-03-30T12:03:05.975Z,100099.11
2018-03-30T12:05:31.773Z,100092.08
2018-03-30T12:07:57.653Z,100082.70
2018-03-30T12:10:23.414Z,100088.34
2018-03-30T12:12:49.195Z,100080.92
2018-03-30T12:15:15.007Z,100078.70
2018-03-30T12:17:40.783Z,100073.36
2018-03-30T12:20:06.603Z,100071.31
2018-03-30T12:22:32.414Z,100076.67
2018-03-30T12:24:58.208Z,100072.40
2018-03-30T12:27:24.000Z,100065.45
2018-03-30T12:29:49.798Z,100061.98
2018-03-30T12:32:15.603Z,100056.91
2018-03-30T12:34:41.383Z,100046.45
2018-03-30T12:37:07.210Z,100047.80
2018-03-30T12:39:33.006Z,100041.61
2018-03-30T12:41:58.796Z,100046.20
2018-03-30T12:44:24.595Z,100048.61
2018-03-30T12:46:50.370Z,100042.58
2018-03-30T12:49:16.163Z,100036.23
2018-03-30T12:51:41.976Z,100025.59
2018-03-30T12:54:07.763Z,100023.64
2018-03-30T12:56:33.559Z,100016.49
2018-03-30T12:58:59.406Z,100015.09
2018-03-30T13:01:25.178Z,100020.62
2018-03-30T13:03:50.967Z,100008.73
2018-03-30T13:06:16.799Z,100002.94
2018-03-30T13:08:42.629Z,99999.72
2018-03-30T13:11:08.428Z,99995.68
2018-03-30T13:13:34.231Z,99995.08
2018-03-30T13:16:00.039Z,99985.41
2018-03-30T13:18:25.882Z,99991.70
2018-03-30T13:20:51.683Z,99978.45
2018-03-30T13:23:17.471Z,99979.11
2018-03-30T13:25:43.292Z,99982.97
2018-03-30T13:28:09.077Z,99980.39
2018-03-30T13:30:34.887Z,99977.59
2018-03-30T13:33:00.714Z,99978.23
2018-03-30T13:35:26.517Z,99967.68
2018-03-30T13:37:52.308Z,99962.34
2018-03-30T13:40:18.135Z,99959.75
2018-03-30T13:42:43.932Z,99964.64
2018-03-30T13:45:10.725Z,99956.37
2018-03-30T13:47:36.535Z,99957.77
2018-03-30T13:50:02.492Z,99954.81
2018-03-30T13:52:30.142Z,99940.28
2018-03-30T13:54:55.974Z,99942.71
2018-03-30T13:57:22.712Z,99941.38
2018-03-30T13:59:48.578Z,99938.73
2018-03-30T14:02:24.654Z,99939.15
2018-03-30T14:04:54.625Z,99929.98
2018-03-30T14:10:14.951Z,99917.55
2018-03-30T14:12:47.553Z,99915.49
2018-03-30T14:15:15.316Z,99906.52
2018-03-30T14:20:35.911Z,99900.91
2018-03-30T14:23:04.615Z,99896.80
2018-03-30T14:25:31.399Z,99895.78
2018-03-30T14:28:04.112Z,99891.48
2018-03-30T14:30:31.673Z,99886.69
2018-03-30T14:33:08.453Z,99879.37
2018-03-30T14:35:42.288Z,99875.06
2018-03-30T14:40:57.836Z,99866.84
2018-03-30T14:43:27.516Z,99865.95
2018-03-30T14:48:42.139Z,99871.20
2018-03-30T14:54:05.713Z,99858.95
2018-03-30T14:56:32.426Z,99864.37
2018-03-30T14:59:19.228Z,99858.05
2018-03-30T15:01:46.832Z,99861.20
2018-03-30T15:04:14.522Z,99865.63
2018-03-30T15:09:41.272Z,99883.81
2018-03-30T15:15:07.775Z,99887.46
2018-03-30T15:17:51.047Z,99882.35
2018-03-30T15:20:20.674Z,99885.56
2018-03-30T15:22:47.296Z,99890.02
2018-03-30T15:28:16.731Z,99893.85
2018-03-30T15:30:52.617Z,99896.64
2018-03-30T15:33:41.628Z,99886.46
2018-03-30T15:36:19.502Z,99886.70
2018-03-30T15:38:45.907Z,99880.94
2018-03-30T15:41:11.758Z,99879.63
2018-03-30T15:43:38.462Z,99875.02
2018-03-30T15:48:56.010Z,99876.36
2018-03-30T15:51:27.423Z,99872.22
2018-03-30T15:53:53.088Z,99875.47
2018-03-30T15:56:18.965Z,99870.22
2018-03-30T15:58:44.714Z,99869.07
2018-03-30T16:01:10.528Z,99869.45
2018-03-30T16:03:36.599Z,99862.41
2018-03-30T16:06:02.409Z,99867.53
2018-03-30T16:08:28.233Z,99868.98
2018-03-30T16:10:58.484Z,99870.45
2018-03-30T16:13:24.292Z,99867.48
2018-03-30T16:15:50.091Z,99859.31
2018-03-30T16:18:15.919Z,99856.83
2018-03-30T16:20:41.559Z,99860.95
2018-03-30T16:23:07.195Z,99859.31
2018-03-30T16:25:32.954Z,99855.77
2018-03-30T16:27:58.609Z,99850.55
2018-03-30T16:30:24.263Z,99855.09
2018-03-30T16:32:50.204Z,99853.42
2018-03-30T16:35:15.846Z,99858.44
2018-03-30T16:37:41.500Z,99860.03
2018-03-30T16:40:07.161Z,99858.22
2018-03-30T16:42:32.815Z,99848.94
2018-03-30T16:44:58.466Z,99846.41
2018-03-30T16:47:24.140Z,99847.19
2018-03-30T16:49:49.802Z,99842.45
2018-03-30T16:52:15.457Z,99844.87
2018-03-30T16:54:41.116Z,99835.70
2018-03-30T16:57:06.768Z,99829.06
2018-03-30T16:59:32.436Z,99836.39
2018-03-30T17:01:58.180Z,99832.84
2018-03-30T17:04:23.843Z,99833.49
2018-03-30T17:06:49.526Z,99841.41
2018-03-30T17:09:15.216Z,99847.36
2018-03-30T17:11:40.878Z,99849.44
2018-03-30T17:14:06.534Z,99841.37
2018-03-30T17:16:32.193Z,99838.36
2018-03-30T17:18:57.867Z,99842.77
2018-03-30T17:21:23.524Z,99854.30
2018-03-30T17:23:49.190Z,99847.47
2018-03-30T17:26:14.976Z,99857.48
2018-03-30T17:28:40.614Z,99863.19
2018-03-30T17:31:06.339Z,99850.08
2018-03-30T17:33:32.004Z,99854.43
2018-03-30T17:35:57.649Z,99857.05
2018-03-30T17:38:23.402Z,99858.98
2018-03-30T17:40:49.048Z,99853.49
2018-03-30T17:43:14.707Z,99852.63
2018-03-30T17:45:40.356Z,99849.48
2018-03-30T17:48:06.011Z,99851.92
2018-03-30T17:50:31.656Z,99847.30
2018-03-30T17:52:57.304Z,99850.61
2018-03-30T17:55:23.055Z,99837.77
2018-03-30T17:57:48.719Z,99845.09
2018-03-30T18:00:14.395Z,99831.98
2018-03-30T18:02:40.076Z,99840.36
2018-03-30T18:05:05.728Z,99830.45
2018-03-30T18:07:31.392Z,99829.69
2018-03-30T18:09:57.067Z,99833.30
2018-03-30T18:12:22.731Z,99835.99
2018-03-30T18:14:48.379Z,99834.84
2018-03-30T18:17:14.061Z,99834.20
2018-03-30T18:19:39.768Z,99832.70
2018-03-30T18:22:05.375Z,99838.31
2018-03-30T18:24:31.393Z,99855.27
2018-03-30T18:26:57.053Z,99854.19
2018-03-30T18:29:22.718Z,99853.33
2018-03-30T18:31:48.392Z,99850.80
2018-03-30T18:34:14.048Z,99846.29
2018-03-30T18:36:39.686Z,99847.02
2018-03-30T18:39:05.367Z,99856.66
2018-03-30T18:41:32.106Z,99858.16
2018-03-30T18:43:57.829Z,99849.19
2018-03-30T18:46:23.555Z,99843.38
2018-03-30T18:48:49.248Z,99843.50
2018-03-30T18:51:14.957Z,99858.98
2018-03-30T18:53:40.649Z,99851.93
2018-03-30T18:56:06.300Z,99851.92
2018-03-30T18:58:32.361Z,99857.02
2018-03-30T19:00:58.587Z,99862.31
2018-03-30T19:03:24.263Z,99869.48
2018-03-30T19:05:49.956Z,99867.69
2018-03-30T19:08:15.682Z,99863.00
2018-03-30T19:10:41.336Z,99865.17
2018-03-30T19:13:07.140Z,99868.40
2018-03-30T19:15:32.926Z,99864.70
2018-03-30T19:17:59.333Z,99861.86
2018-03-30T19:20:25.083Z,99861.83
2018-03-30T19:22:50.810Z,99859.56
2018-03-30T19:25:16.541Z,99858.27
2018-03-30T19:27:42.215Z,99854.69
2018-03-30T19:30:07.876Z,99850.14
2018-03-30T19:32:33.890Z,99845.59
2018-03-30T19:34:59.555Z,99853.58
2018-03-30T19:37:25.212Z,99842.80
2018-03-30T19:39:51.244Z,99853.77
2018-03-30T19:42:16.914Z,99854.48
2018-03-30T19:44:43.574Z,99856.30
2018-03-30T19:47:09.278Z,99852.97
2018-03-30T19:49:34.962Z,99851.83
2018-03-30T19:52:00.625Z,99846.71
2018-03-30T19:54:26.426Z,99841.87
2018-03-30T19:56:52.084Z,99852.70
2018-03-30T19:59:17.733Z,99848.67
2018-03-30T20:01:43.720Z,99839.81
2018-03-30T20:04:09.412Z,99841.91
2018-03-30T20:06:35.408Z,99838.97
2018-03-30T20:09:01.116Z,99839.78
2018-03-30T20:11:26.829Z,99847.23
2018-03-30T20:13:53.571Z,99846.38
2018-03-30T20:16:19.245Z,99839.36
2018-03-30T20:18:44.954Z,99836.45
2018-03-30T20:21:10.608Z,99838.55
2018-03-30T20:23:37.231Z,99835.79
2018-03-30T20:26:02.903Z,99849.06
2018-03-30T20:28:28.662Z,99839.61
2018-03-30T20:30:54.319Z,99847.02
2018-03-30T20:33:19.968Z,99844.58
2018-03-30T20:35:45.661Z,99839.43
2018-03-30T20:38:11.359Z,99840.14
2018-03-30T20:40:37.018Z,99837.38
2018-03-30T20:43:02.716Z,99841.10
2018-03-30T20:45:28.401Z,99837.16
2018-03-30T20:47:54.676Z,99840.31
2018-03-30T20:50:20.538Z,99835.25
2018-03-30T20:52:46.228Z,99832.44
2018-03-30T20:55:12.071Z,99826.66
2018-03-30T20:57:38.052Z,99821.52
2018-03-30T21:00:04.741Z,99811.52
2018-03-30T21:02:30.407Z,99816.23
2018-03-30T21:04:56.079Z,99819.04
2018-03-30T21:07:21.734Z,99816.70
2018-03-30T21:09:47.398Z,99817.31
2018-03-30T21:12:13.102Z,99812.20
2018-03-30T21:14:38.755Z,99815.47
2018-03-30T21:17:04.443Z,99814.91
2018-03-30T21:19:30.160Z,99810.04
2018-03-30T21:21:55.833Z,99811.23
2018-03-30T21:24:21.499Z,99810.58
2018-03-30T21:26:47.216Z,99801.84
2018-03-30T21:29:12.900Z,99801.48
2018-03-30T21:31:38.562Z,99794.98
2018-03-30T21:34:05.147Z,99795.80
2018-03-30T21:36:30.800Z,99797.80
2018-03-30T21:38:57.177Z,99800.09
2018-03-30T21:41:23.192Z,99784.81
2018-03-30T21:43:48.907Z,99783.95
2018-03-30T21:46:14.565Z,99784.17
2018-03-30T21:48:40.227Z,99776.45
2018-03-30T21:51:05.888Z,99782.88
2018-03-30T21:53:31.581Z,99777.25
2018-03-30T21:55:57.389Z,99776.73
2018-03-30T21:58:23.048Z,99774.65
2018-03-30T22:00:48.894Z,99770.44
2018-03-30T22:03:15.238Z,99771.07
2018-03-30T22:05:40.911Z,99770.88
2018-03-30T22:08:06.583Z,99774.74
2018-03-30T22:10:32.268Z,99764.48
2018-03-30T22:12:57.924Z,99771.88
2018-03-30T22:15:23.598Z,99771.41
2018-03-30T22:17:49.288Z,99781.58
2018-03-30T22:20:14.943Z,99774.08
2018-03-30T22:22:41.682Z,99771.13
2018-03-30T22:25:07.383Z,99767.13
2018-03-30T22:27:33.076Z,99767.66
2018-03-30T22:29:58.776Z,99762.98
2018-03-30T22:32:25.223Z,99764.32
2018-03-30T22:34:50.886Z,99764.66
2018-03-30T22:37:16.557Z,99759.50
2018-03-30T22:39:42.207Z,99760.08
2018-03-30T22:42:07.870Z,99753.61
2018-03-30T22:44:33.564Z,99750.45
2018-03-30T22:46:59.275Z,99741.31
2018-03-30T22:49:24.938Z,99748.52
2018-03-30T22:51:50.669Z,99738.98
2018-03-30T22:54:16.339Z,99733.64
2018-03-30T22:56:42.037Z,99731.68
2018-03-30T22:59:07.744Z,99728.49
2018-03-30T23:01:33.392Z,99729.20
2018-03-30T23:03:59.060Z,99737.45
2018-03-30T23:06:24.733Z,99734.59
2018-03-30T23:08:50.493Z,99735.36
2018-03-30T23:11:16.171Z,99723.77
2018-03-30T23:13:41.827Z,99718.96
2018-03-30T23:16:07.533Z,99725.00
2018-03-30T23:18:33.170Z,99709.33
2018-03-30T23:20:58.930Z,99697.89
2018-03-30T23:23:24.588Z,99706.71
2018-03-30T23:25:50.276Z,99706.56
2018-03-30T23:28:15.926Z,99707.27
2018-03-30T23:30:41.592Z,99704.95
2018-03-30T23:33:07.276Z,99697.27
2018-03-30T23:35:32.987Z,99697.64
2018-03-30T23:37:58.645Z,99692.20
2018-03-30T23:40:24.311Z,99692.39
2018-03-30T23:42:49.965Z,99703.84
2018-03-30T23:45:15.611Z,99702.50
2018-03-30T23:47:41.275Z,99688.80
2018-03-30T23:50:06.929Z,99693.60
2018-03-30T23:52:32.588Z,99685.25
2018-03-30T23:54:58.258Z,99672.41
2018-03-30T23:57:23.920Z,99679.11
2018-03-30T23:59:49.599Z,99677.44
